Time;durP1;ratioP1;P1;durP2;ratioP2;P2;SDS_P1;SDS_P2;PMS_P1;PMS_P2;Temp;Humidity;BMP_temperature;BMP_pressure;BME280_temperature;BME280_humidity;BME280_pressure;Samples;Min_cycle;Max_cycle;Signal;HPM_P1;HPM_P2
2022/04/20 00:04:24;;;;;;;;;;;9.10;77.90;;;;;;20748766;28;20302;-59
2022/04/20 00:14:26;;;;;;;;;;;9.10;78.40;;;;;;20747408;28;19921;-61
2022/04/20 00:24:27;;;;;;;;;;;8.90;77.00;;;;;;20747710;28;19921;-59
2022/04/20 00:34:29;;;;;;;;;;;8.70;76.80;;;;;;20748684;28;20020;-59
2022/04/20 00:44:31;;;;;;;;;;;8.60;76.60;;;;;;20746914;28;19928;-60
2022/04/20 00:54:32;;;;;;;;;;;8.40;75.40;;;;;;20751681;28;19921;-60
2022/04/20 01:04:33;;;;;;;;;;;8.40;75.50;;;;;;20763653;28;19921;-58
2022/04/20 01:14:36;;;;;;;;;;;8.30;76.20;;;;;;20759945;28;19922;-59
2022/04/20 01:24:38;;;;;;;;;;;8.20;75.40;;;;;;20760601;28;19921;-60
2022/04/20 01:34:41;;;;;;;;;;;8.10;77.10;;;;;;20760347;28;19928;-62
2022/04/20 01:44:46;;;;;;;;;;;8.40;76.50;;;;;;20758089;28;19928;-58
2022/04/20 01:54:48;;;;;;;;;;;8.20;76.80;;;;;;20789269;28;20012;-60
2022/04/20 02:04:49;;;;;;;;;;;8.30;75.80;;;;;;20757144;28;20240;-65
2022/04/20 02:14:53;;;;;;;;;;;8.20;76.10;;;;;;20755813;28;19958;-65
2022/04/20 02:24:56;;;;;;;;;;;8.40;77.20;;;;;;20756043;28;19929;-66
2022/04/20 02:34:58;;;;;;;;;;;8.50;77.30;;;;;;20786031;28;20303;-67
2022/04/20 02:45:00;;;;;;;;;;;8.20;74.70;;;;;;20753730;28;19960;-69
2022/04/20 02:55:02;;;;;;;;;;;8.50;73.50;;;;;;20753722;28;19932;-60
2022/04/20 03:05:06;;;;;;;;;;;8.80;72.30;;;;;;20783456;28;19948;-60
2022/04/20 03:15:27;;;;;;;;;;;8.80;73.20;;;;;;20779144;28;19922;-60
2022/04/20 03:25:35;;;;;;;;;;;7.90;75.20;;;;;;20750597;28;19975;-65
2022/04/20 03:35:56;;;;;;;;;;;7.70;76.70;;;;;;20751082;28;19921;-62
2022/04/20 03:46:18;;;;;;;;;;;7.70;76.50;;;;;;20750168;28;19921;-64
2022/04/20 04:07:17;;;;;;;;;;;7.70;78.40;;;;;;20748897;28;19921;-61
2022/04/20 04:17:38;;;;;;;;;;;7.60;77.80;;;;;;20748695;28;19922;-69
2022/04/20 04:27:54;;;;;;;;;;;7.60;78.30;;;;;;20749061;28;19983;-61
2022/04/20 04:38:02;;;;;;;;;;;7.70;77.70;;;;;;20762823;28;19964;-61
2022/04/20 04:58:36;;;;;;;;;;;7.60;77.30;;;;;;20762110;28;19968;-65
2022/04/20 05:08:39;;;;;;;;;;;7.70;77.80;;;;;;20761602;28;20260;-69
2022/04/20 05:18:41;;;;;;;;;;;7.50;78.40;;;;;;20760502;28;19921;-62
2022/04/20 05:28:43;;;;;;;;;;;7.30;78.90;;;;;;20759600;28;19928;-67
2022/04/20 05:49:08;;;;;;;;;;;7.10;79.20;;;;;;20758438;28;19921;-67
2022/04/20 05:59:10;;;;;;;;;;;7.10;80.00;;;;;;20758649;28;19928;-67
2022/04/20 06:09:11;;;;;;;;;;;6.80;79.00;;;;;;20756675;28;19921;-69
2022/04/20 06:19:14;;;;;;;;;;;6.60;79.60;;;;;;20755847;28;19957;-61
2022/04/20 06:29:17;;;;;;;;;;;;;;;;;;20755003;28;19925;-68
2022/04/20 06:39:19;;;;;;;;;;;;;;;;;;20753430;28;19949;-66
2022/04/20 06:49:21;;;;;;;;;;;;;;;;;;20753148;28;20035;-63
2022/04/20 06:59:24;;;;;;;;;;;;;;;;;;20753507;28;19926;-64
2022/04/20 07:09:26;;;;;;;;;;;;;;;;;;20784000;28;19929;-60
2022/04/20 07:19:29;;;;;;;;;;;;;;;;;;20773486;28;19921;-64
2022/04/20 07:29:31;;;;;;;;;;;;;;;;;;20790749;28;19921;-62
2022/04/20 07:39:33;;;;;;;;;;;;;;;;;;20750267;28;19922;-65
2022/04/20 07:59:56;;;;;;;;;;;;;;;;;;20749545;28;19945;-63
2022/04/20 08:09:58;;;;;;;;;;;;;;;;;;20747804;28;19922;-63
2022/04/20 08:20:00;;;;;;;;;;;9.00;70.60;;;;;;20747569;28;19928;-67
2022/04/20 08:30:02;;;;;;;;;;;;;;;;;;20746835;28;20302;-64
2022/04/20 08:40:04;;;;;;;;;;;;;;;;;;20746999;28;19922;-64
2022/04/20 08:50:06;;;;;;;;;;;;;;;;;;20746318;28;19984;-61
2022/04/20 09:00:10;;;;;;;;;;;10.40;64.90;;;;;;20745059;28;20074;-60
2022/04/20 09:10:12;;;;;;;;;;;;;;;;;;20713415;28;19921;-57
2022/04/20 09:20:17;;;;;;;;;;;10.40;65.60;;;;;;20727891;28;19921;-68
2022/04/20 09:30:19;;;;;;;;;;;10.10;65.20;;;;;;20731911;28;19929;-59
2022/04/20 09:40:30;;;;;;;;;;;10.30;65.60;;;;;;20759424;28;19964;-67
2022/04/20 09:50:31;;;;;;;;;;;10.80;63.50;;;;;;20757968;28;19973;-64
2022/04/20 10:00:37;;;;;;;;;;;10.90;62.70;;;;;;20761165;28;19953;-75
2022/04/20 10:10:38;;;;;;;;;;;10.90;59.40;;;;;;20727769;28;19988;-64
2022/04/20 10:20:42;;;;;;;;;;;10.90;60.10;;;;;;20681860;28;19922;-67
2022/04/20 10:31:01;;;;;;;;;;;11.90;56.80;;;;;;20750332;28;20388;-67
2022/04/20 10:41:08;;;;;;;;;;;12.40;56.30;;;;;;20752933;28;20376;-63
2022/04/20 10:51:16;;;;;;;;;;;11.50;56.60;;;;;;20754293;28;19925;-63
2022/04/20 11:01:18;;;;;;;;;;;11.40;57.00;;;;;;20752231;28;20018;-71
2022/04/20 11:21:54;;;;;;;;;;;11.70;55.50;;;;;;20750891;28;19928;-73
2022/04/20 11:31:58;;;;;;;;;;;11.60;56.00;;;;;;20749577;28;19921;-65
2022/04/20 11:42:02;;;;;;;;;;;12.10;55.10;;;;;;20747724;28;20100;-63
2022/04/20 11:52:06;;;;;;;;;;;12.30;53.30;;;;;;20749490;28;20372;-68
2022/04/20 12:02:14;;;;;;;;;;;12.60;51.50;;;;;;20747873;28;19929;-67
2022/04/20 12:12:17;;;;;;;;;;;;;;;;;;20748388;28;20451;-62
2022/04/20 12:22:21;;;;;;;;;;;12.90;49.60;;;;;;20751930;28;19998;-66
2022/04/20 12:32:41;;;;;;;;;;;12.70;49.80;;;;;;20783854;28;19921;-67
2022/04/20 12:43:05;;;;;;;;;;;12.90;50.00;;;;;;20746643;28;19921;-64
2022/04/20 12:53:07;;;;;;;;;;;12.90;50.50;;;;;;20755585;28;19975;-64
2022/04/20 13:03:09;;;;;;;;;;;12.80;51.00;;;;;;20763873;28;19928;-64
2022/04/20 13:13:11;;;;;;;;;;;;;;;;;;20761608;28;20420;-63
2022/04/20 13:23:13;;;;;;;;;;;;;;;;;;20761046;28;20382;-63
2022/04/20 13:33:16;;;;;;;;;;;14.30;46.50;;;;;;20760608;28;20256;-67
2022/04/20 13:43:18;;;;;;;;;;;13.40;48.20;;;;;;20759516;28;19921;-65
2022/04/20 13:53:19;;;;;;;;;;;13.10;48.80;;;;;;20759238;28;19929;-65
2022/04/20 14:03:22;;;;;;;;;;;13.20;48.30;;;;;;20789367;28;19967;-65
2022/04/20 14:13:23;;;;;;;;;;;14.10;46.40;;;;;;20788647;28;19921;-66
2022/04/20 14:23:25;;;;;;;;;;;13.70;46.40;;;;;;20788443;28;19926;-66
2022/04/20 14:33:28;;;;;;;;;;;14.40;44.60;;;;;;20754338;28;19927;-66
2022/04/20 14:43:30;;;;;;;;;;;13.70;45.40;;;;;;20754986;28;19921;-67
2022/04/20 14:53:31;;;;;;;;;;;13.70;45.20;;;;;;20753784;28;20008;-63
2022/04/20 15:03:33;;;;;;;;;;;;;;;;;;20752593;28;19921;-64
2022/04/20 15:13:35;;;;;;;;;;;;;;;;;;20751583;28;19925;-66
2022/04/20 15:23:38;;;;;;;;;;;;;;;;;;20752880;28;20397;-64
2022/04/20 15:33:39;;;;;;;;;;;;;;;;;;20751540;28;20363;-64
2022/04/20 15:43:41;;;;;;;;;;;;;;;;;;20750467;28;19967;-64
2022/04/20 15:53:43;;;;;;;;;;;;;;;;;;20748970;28;19922;-65
2022/04/20 16:03:45;;;;;;;;;;;;;;;;;;20747357;28;19925;-59
2022/04/20 16:13:47;;;;;;;;;;;15.60;40.30;;;;;;20750630;28;19944;-73
2022/04/20 16:23:49;;;;;;;;;;;15.00;41.30;;;;;;20753815;28;20028;-74
2022/04/20 16:33:50;;;;;;;;;;;14.40;40.60;;;;;;20768337;28;19978;-69
2022/04/20 16:43:52;;;;;;;;;;;13.70;41.50;;;;;;20766483;28;19921;-75
2022/04/20 16:53:54;;;;;;;;;;;13.60;41.50;;;;;;20765286;28;20292;-76
2022/04/20 17:03:56;;;;;;;;;;;13.60;41.80;;;;;;20761766;28;19932;-75
2022/04/20 17:14:01;;;;;;;;;;;13.90;41.70;;;;;;20761430;28;19926;-72
2022/04/20 17:34:23;;;;;;;;;;;13.80;40.60;;;;;;20766429;28;19929;-71
2022/04/20 17:44:25;;;;;;;;;;;13.70;40.20;;;;;;20757697;28;19974;-68
2022/04/20 17:54:27;;;;;;;;;;;;;;;;;;20758783;28;20375;-70
2022/04/20 18:04:28;;;;;;;;;;;13.50;40.50;;;;;;20758233;28;20280;-68
2022/04/20 18:14:29;;;;;;;;;;;12.90;41.50;;;;;;20757191;28;20295;-74
2022/04/20 18:24:31;;;;;;;;;;;12.80;41.40;;;;;;20759020;28;20377;-67
2022/04/20 18:34:34;;;;;;;;;;;12.80;41.60;;;;;;20756578;28;20003;-75
2022/04/20 18:44:35;;;;;;;;;;;13.00;42.30;;;;;;20755004;28;19921;-69
2022/04/20 19:04:57;;;;;;;;;;;12.50;42.80;;;;;;20754064;28;20284;-73
2022/04/20 19:15:01;;;;;;;;;;;;;;;;;;20754019;28;19969;-68
2022/04/20 19:25:02;;;;;;;;;;;12.30;44.20;;;;;;20752555;28;20367;-68
2022/04/20 19:35:04;;;;;;;;;;;12.20;43.50;;;;;;20750739;28;19921;-66
2022/04/20 19:45:05;;;;;;;;;;;12.00;44.10;;;;;;20750174;28;19921;-71
2022/04/20 19:55:07;;;;;;;;;;;12.00;43.80;;;;;;20761226;28;20011;-69
2022/04/20 20:05:09;;;;;;;;;;;11.90;43.80;;;;;;20757992;28;19928;-74
2022/04/20 20:15:10;;;;;;;;;;;11.90;44.40;;;;;;20753688;28;19921;-66
2022/04/20 20:35:31;;;;;;;;;;;11.30;45.90;;;;;;20749930;28;20096;-76
2022/04/20 20:45:33;;;;;;;;;;;11.30;45.60;;;;;;20747271;28;19958;-73
2022/04/20 20:55:34;;;;;;;;;;;11.30;45.80;;;;;;20749695;28;20272;-75
2022/04/20 21:05:36;;;;;;;;;;;11.20;46.40;;;;;;20749342;28;19925;-77
2022/04/20 21:15:39;;;;;;;;;;;11.20;46.10;;;;;;20762415;28;19921;-68
2022/04/20 21:25:41;;;;;;;;;;;11.20;46.10;;;;;;20766714;28;19921;-75
2022/04/20 21:35:42;;;;;;;;;;;11.10;46.20;;;;;;20769879;28;19922;-71
2022/04/20 21:45:44;;;;;;;;;;;11.00;46.50;;;;;;20762472;28;20368;-71
2022/04/20 21:55:48;;;;;;;;;;;10.80;47.00;;;;;;20760722;28;20028;-75
2022/04/20 22:16:12;;;;;;;;;;;10.70;48.00;;;;;;20769419;28;19928;-73
2022/04/20 22:26:14;;;;;;;;;;;10.70;47.90;;;;;;20759946;28;19932;-69
2022/04/20 22:36:15;;;;;;;;;;;10.70;47.70;;;;;;20754895;28;20275;-74
2022/04/20 22:46:18;;;;;;;;;;;10.70;47.60;;;;;;20754928;28;19922;-72
2022/04/20 22:56:19;;;;;;;;;;;10.60;47.70;;;;;;20757056;28;19921;-73
2022/04/20 23:06:20;;;;;;;;;;;10.60;47.90;;;;;;20754174;28;19922;-75
2022/04/20 23:16:22;;;;;;;;;;;10.60;47.80;;;;;;20754303;28;19980;-70
2022/04/20 23:36:43;;;;;;;;;;;10.40;48.90;;;;;;20751397;28;19925;-72
2022/04/20 23:46:45;;;;;;;;;;;10.30;49.30;;;;;;20750516;28;19929;-76
2022/04/20 23:56:47;;;;;;;;;;;10.20;49.90;;;;;;20751395;28;20414;-73
